createdAt,value
2019-04-21T00:03:30.373Z,8.88
2019-04-21T00:08:50.824Z,11.00
2019-04-21T00:13:49.133Z,8.70
2019-04-21T00:18:54.875Z,9.75
2019-04-21T00:24:23.825Z,10.88
2019-04-21T00:34:21.748Z,9.48
2019-04-21T00:44:51.314Z,14.24
2019-04-21T00:49:59.114Z,14.13
2019-04-21T00:55:13.986Z,10.70
2019-04-21T01:00:11.641Z,11.48
2019-04-21T01:05:18.545Z,11.20
2019-04-21T01:10:14.983Z,9.47
2019-04-21T01:15:33.756Z,8.83
2019-04-21T01:20:17.264Z,15.58
2019-04-21T01:25:25.841Z,9.20
2019-04-21T01:30:42.913Z,10.60
2019-04-21T01:35:50.982Z,11.53
2019-04-21T01:40:52.727Z,15.60
2019-04-21T01:45:56.514Z,26.57
2019-04-21T01:51:01.529Z,23.25
2019-04-21T01:56:24.048Z,23.47
2019-04-21T02:01:37.203Z,26.60
2019-04-21T02:06:33.182Z,24.93
2019-04-21T02:11:44.337Z,22.17
2019-04-21T02:16:47.548Z,27.22
2019-04-21T02:21:49.195Z,19.90
2019-04-21T02:26:59.549Z,29.48
2019-04-21T02:32:24.387Z,29.80
2019-04-21T02:42:19.894Z,26.65
2019-04-21T02:47:38.916Z,32.88
2019-04-21T02:52:39.305Z,29.42
2019-04-21T02:57:43.513Z,29.07
2019-04-21T03:08:27.983Z,36.70
2019-04-21T03:13:21.692Z,30.23
2019-04-21T03:28:30.180Z,25.70
2019-04-21T03:43:43.826Z,30.17
2019-04-21T03:53:55.873Z,33.10
2019-04-21T04:09:48.292Z,28.70
2019-04-21T04:25:05.187Z,33.40
2019-04-21T04:30:09.670Z,24.45
2019-04-21T04:45:36.708Z,26.37
2019-04-21T04:50:45.330Z,32.48
2019-04-21T04:55:43.291Z,36.53
2019-04-21T05:00:45.996Z,29.23
2019-04-21T05:26:36.059Z,21.95
2019-04-21T05:32:07.904Z,23.12
2019-04-21T05:37:28.918Z,23.40
2019-04-21T05:42:29.327Z,30.02
2019-04-21T05:48:12.219Z,26.75
2019-04-21T05:53:15.038Z,28.15
2019-04-21T05:58:30.144Z,33.10
2019-04-21T06:03:23.876Z,39.42
2019-04-21T06:08:29.721Z,36.33
2019-04-21T06:13:40.383Z,34.48
2019-04-21T06:18:44.936Z,37.33
2019-04-21T06:23:42.236Z,33.88
2019-04-21T06:28:46.995Z,33.53
2019-04-21T06:33:48.917Z,38.73
2019-04-21T06:44:09.603Z,30.10
2019-04-21T06:49:02.790Z,32.93
2019-04-21T06:54:30.514Z,30.50
2019-04-21T06:59:13.501Z,32.80
2019-04-21T07:04:25.426Z,25.92
2019-04-21T07:09:48.346Z,28.13
2019-04-21T07:14:49.921Z,30.17
2019-04-21T07:19:40.964Z,25.43
2019-04-21T07:24:42.863Z,30.30
2019-04-21T07:29:55.636Z,27.22
2019-04-21T07:35:00.581Z,20.72
2019-04-21T07:39:55.607Z,25.35
2019-04-21T07:45:00.690Z,23.38
2019-04-21T07:50:22.736Z,20.12
2019-04-21T08:00:45.807Z,17.40
2019-04-21T08:05:59.200Z,19.67
2019-04-21T08:10:45.307Z,14.93
2019-04-21T08:15:50.985Z,18.85
2019-04-21T08:20:54.438Z,17.33
2019-04-21T08:26:06.131Z,10.10
2019-04-21T08:31:11.484Z,7.72
2019-04-21T08:36:20.759Z,9.78
2019-04-21T08:41:12.330Z,6.72
2019-04-21T08:46:23.878Z,2.90
2019-04-21T08:51:33.298Z,3.58
2019-04-21T08:57:02.492Z,5.90
2019-04-21T09:02:10.197Z,4.55
2019-04-21T09:07:29.343Z,3.37
2019-04-21T09:12:24.176Z,3.33
2019-04-21T09:17:24.867Z,4.50
2019-04-21T09:22:35.811Z,5.70
2019-04-21T09:27:36.647Z,9.13
2019-04-21T09:32:29.345Z,4.85
2019-04-21T09:37:41.883Z,4.12
2019-04-21T09:42:46.975Z,3.10
2019-04-21T09:47:50.210Z,4.33
2019-04-21T09:52:52.826Z,3.05
2019-04-21T09:57:55.718Z,5.78
2019-04-21T10:03:02.846Z,4.45
2019-04-21T10:08:01.720Z,3.07
2019-04-21T10:13:05.108Z,6.33
2019-04-21T10:18:13.031Z,3.65
2019-04-21T10:23:17.630Z,6.03
2019-04-21T10:28:21.283Z,4.05
2019-04-21T10:33:24.401Z,6.12
2019-04-21T10:38:36.575Z,4.87
2019-04-21T10:43:33.465Z,4.22
2019-04-21T10:48:38.242Z,4.45
2019-04-21T10:53:43.300Z,4.17
2019-04-21T10:58:48.147Z,4.08
2019-04-21T11:04:21.814Z,5.55
2019-04-21T11:09:22.042Z,3.27
2019-04-21T11:14:25.437Z,5.78
2019-04-21T11:19:28.809Z,3.47
2019-04-21T11:24:33.168Z,3.58
2019-04-21T11:29:37.172Z,2.55
2019-04-21T11:34:41.003Z,2.25
2019-04-21T11:39:52.137Z,4.08
2019-04-21T11:44:51.432Z,4.33
2019-04-21T11:49:54.993Z,2.37
2019-04-21T11:54:58.713Z,3.80
2019-04-21T12:00:02.225Z,2.60
2019-04-21T12:05:05.875Z,2.95
2019-04-21T12:10:09.329Z,1.85
2019-04-21T12:15:14.175Z,2.30
2019-04-21T12:20:18.816Z,1.52
2019-04-21T12:25:25.062Z,3.40
2019-04-21T12:30:33.528Z,3.08
2019-04-21T12:35:37.750Z,3.35
2019-04-21T12:40:42.275Z,3.47
2019-04-21T12:45:46.081Z,1.92
2019-04-21T12:50:49.913Z,2.92
2019-04-21T12:55:53.803Z,1.95
2019-04-21T13:00:57.270Z,1.22
2019-04-21T13:06:01.398Z,2.30
2019-04-21T13:11:06.417Z,1.98
2019-04-21T13:16:11.505Z,3.85
2019-04-21T13:21:16.020Z,1.95
2019-04-21T13:26:29.575Z,1.35
2019-04-21T13:31:24.606Z,3.20
2019-04-21T13:36:27.939Z,3.77
2019-04-21T13:41:42.846Z,2.85
2019-04-21T13:46:36.521Z,0.95
2019-04-21T13:51:39.766Z,2.58
2019-04-21T13:56:43.014Z,1.75
2019-04-21T14:01:47.792Z,1.30
2019-04-21T14:06:52.217Z,1.67
2019-04-21T14:11:57.048Z,3.58
2019-04-21T14:17:00.603Z,2.47
2019-04-21T14:22:03.819Z,0.82
2019-04-21T14:27:08.032Z,1.95
2019-04-21T14:32:11.496Z,1.77
2019-04-21T14:37:14.899Z,1.60
2019-04-21T14:42:18.420Z,2.98
2019-04-21T14:47:42.141Z,3.52
2019-04-21T14:52:48.506Z,1.67
2019-04-21T14:57:51.804Z,4.40
2019-04-21T15:02:55.905Z,2.58
2019-04-21T15:07:59.386Z,1.50
2019-04-21T15:13:03.543Z,2.72
2019-04-21T15:18:06.869Z,1.27
2019-04-21T15:23:10.492Z,1.40
2019-04-21T15:28:13.912Z,2.83
2019-04-21T15:33:18.225Z,2.95
2019-04-21T15:38:22.235Z,1.50
2019-04-21T15:43:26.592Z,2.60
2019-04-21T15:48:30.807Z,3.15
2019-04-21T15:53:34.842Z,1.20
2019-04-21T15:58:58.837Z,2.85
2019-04-21T16:04:02.889Z,1.32
2019-04-21T16:09:16.190Z,1.20
2019-04-21T16:14:14.602Z,1.17
2019-04-21T16:19:18.460Z,8.93
2019-04-21T16:24:23.309Z,4.42
2019-04-21T16:29:27.264Z,1.30
2019-04-21T16:34:42.801Z,1.60
2019-04-21T16:39:35.605Z,4.78
2019-04-21T16:44:38.956Z,1.70
2019-04-21T16:49:43.584Z,5.45
2019-04-21T16:54:50.011Z,2.02
2019-04-21T16:59:56.901Z,2.62
2019-04-21T17:05:00.454Z,2.92
2019-04-21T17:10:04.566Z,2.08
2019-04-21T17:15:24.326Z,3.98
2019-04-21T17:20:30.011Z,1.50
2019-04-21T17:25:21.669Z,3.30
2019-04-21T17:30:26.355Z,1.85
2019-04-21T17:35:31.162Z,2.50
2019-04-21T17:40:35.734Z,6.50
2019-04-21T17:45:39.613Z,2.98
2019-04-21T17:50:51.549Z,5.22
2019-04-21T17:56:19.426Z,2.98
2019-04-21T18:01:40.729Z,2.90
2019-04-21T18:06:36.918Z,3.52
2019-04-21T18:11:42.558Z,3.25
2019-04-21T18:16:53.437Z,4.07
2019-04-21T18:22:08.543Z,5.37
2019-04-21T18:27:13.528Z,3.58
2019-04-21T18:32:24.836Z,2.95
2019-04-21T18:37:47.692Z,4.17
2019-04-21T18:43:32.696Z,3.72
2019-04-21T18:48:30.329Z,6.33
2019-04-21T18:53:58.092Z,6.33
2019-04-21T18:58:54.231Z,6.28
2019-04-21T19:03:58.318Z,7.60
2019-04-21T19:09:19.971Z,11.85
2019-04-21T19:14:32.281Z,11.28
2019-04-21T19:24:41.219Z,10.68
2019-04-21T19:29:54.001Z,24.50
2019-04-21T19:34:37.816Z,20.17
2019-04-21T19:39:52.727Z,17.65
2019-04-21T19:44:59.329Z,14.85
2019-04-21T19:50:09.302Z,18.73
2019-04-21T19:54:54.993Z,15.08
2019-04-21T20:00:01.382Z,19.00
2019-04-21T20:05:09.542Z,10.72
2019-04-21T20:10:44.400Z,20.70
2019-04-21T20:15:51.028Z,17.73
2019-04-21T20:20:21.308Z,22.13
2019-04-21T20:25:25.618Z,24.57
2019-04-21T20:30:52.695Z,25.32
2019-04-21T20:36:11.957Z,22.27
2019-04-21T20:40:52.689Z,23.65
2019-04-21T20:46:03.704Z,24.35
2019-04-21T20:51:14.495Z,28.10
2019-04-21T20:56:09.008Z,20.15
2019-04-21T21:06:22.898Z,23.20
2019-04-21T21:11:29.406Z,20.53
2019-04-21T21:16:45.073Z,30.05
2019-04-21T21:21:34.497Z,25.62
2019-04-21T21:26:47.078Z,22.65
2019-04-21T21:31:50.668Z,24.27
2019-04-21T21:36:55.278Z,29.10
2019-04-21T21:41:49.800Z,32.08
2019-04-21T21:47:00.566Z,23.97
2019-04-21T21:52:06.057Z,26.52
2019-04-21T21:56:58.656Z,19.95
2019-04-21T22:02:03.580Z,27.93
2019-04-21T22:07:13.543Z,21.12
2019-04-21T22:12:12.751Z,29.40
2019-04-21T22:17:29.479Z,25.37
2019-04-21T22:22:36.557Z,27.15
2019-04-21T22:27:27.885Z,25.80
2019-04-21T22:32:33.153Z,27.45
2019-04-21T22:37:47.378Z,23.57
2019-04-21T22:42:53.624Z,28.05
2019-04-21T22:47:49.281Z,22.20
2019-04-21T22:52:58.293Z,26.17
2019-04-21T22:57:59.857Z,22.90
2019-04-21T23:03:09.752Z,24.23
2019-04-21T23:08:09.261Z,21.77
2019-04-21T23:13:18.281Z,21.17
2019-04-21T23:18:34.904Z,20.57
2019-04-21T23:23:44.332Z,25.17
2019-04-21T23:28:52.699Z,20.02
2019-04-21T23:33:34.564Z,21.55
2019-04-21T23:38:44.141Z,23.22
2019-04-21T23:43:44.889Z,16.87
2019-04-21T23:49:01.718Z,25.52
2019-04-21T23:53:53.347Z,19.27
2019-04-21T23:59:02.764Z,15.30
